createdAt,value
2019-02-23T00:02:30.971Z,80.30
2019-02-23T00:05:24.355Z,80.00
2019-02-23T00:08:09.384Z,80.20
2019-02-23T00:10:54.579Z,80.00
2019-02-23T00:13:48.690Z,79.90
2019-02-23T00:16:42.656Z,79.90
2019-02-23T00:19:27.510Z,79.80
2019-02-23T00:22:12.425Z,79.60
2019-02-23T00:25:06.403Z,79.60
2019-02-23T00:28:00.256Z,79.50
2019-02-23T00:30:45.718Z,80.10
2019-02-23T00:33:39.407Z,79.40
2019-02-23T00:36:24.375Z,79.60
2019-02-23T00:39:18.250Z,80.10
2019-02-23T00:42:03.050Z,80.30
2019-02-23T00:44:48.180Z,80.40
2019-02-23T00:47:41.669Z,81.10
2019-02-23T00:50:26.910Z,81.10
2019-02-23T00:53:20.692Z,81.10
2019-02-23T00:56:06.067Z,81.00
2019-02-23T00:58:59.643Z,80.30
2019-02-23T01:01:44.478Z,80.20
2019-02-23T01:04:29.139Z,79.90
2019-02-23T01:07:14.131Z,80.10
2019-02-23T01:09:58.811Z,79.80
2019-02-23T01:12:43.888Z,79.50
2019-02-23T01:15:29.155Z,79.50
2019-02-23T01:18:22.752Z,79.40
2019-02-23T01:21:08.587Z,79.80
2019-02-23T01:23:53.244Z,80.00
2019-02-23T01:26:38.148Z,80.10
2019-02-23T01:29:22.967Z,80.10
2019-02-23T01:32:07.591Z,80.00
2019-02-23T01:35:02.699Z,80.10
2019-02-23T01:37:56.581Z,80.30
2019-02-23T01:40:41.537Z,80.30
2019-02-23T01:43:35.287Z,80.20
2019-02-23T01:46:21.495Z,80.10
2019-02-23T01:49:06.075Z,80.20
2019-02-23T01:51:50.745Z,80.20
2019-02-23T01:54:35.188Z,80.10
2019-02-23T01:57:28.369Z,79.80
2019-02-23T02:00:13.174Z,79.60
2019-02-23T02:03:08.175Z,79.50
2019-02-23T02:06:01.935Z,79.70
2019-02-23T02:08:47.393Z,79.70
2019-02-23T02:11:41.205Z,79.80
2019-02-23T02:14:26.091Z,80.00
2019-02-23T02:17:11.208Z,80.10
2019-02-23T02:20:11.097Z,80.20
2019-02-23T02:23:00.258Z,80.30
2019-02-23T02:25:45.203Z,80.10
2019-02-23T02:28:29.725Z,80.00
2019-02-23T02:31:14.680Z,79.90
2019-02-23T02:33:59.696Z,79.80
2019-02-23T02:36:44.136Z,79.90
2019-02-23T02:39:29.480Z,79.90
2019-02-23T02:42:14.575Z,80.00
2019-02-23T02:45:08.322Z,80.10
2019-02-23T02:47:52.971Z,80.00
2019-02-23T02:50:38.081Z,80.00
2019-02-23T02:53:22.920Z,80.20
2019-02-23T02:56:16.968Z,80.40
2019-02-23T02:59:01.587Z,80.20
2019-02-23T03:01:46.453Z,80.20
2019-02-23T03:04:31.540Z,80.20
2019-02-23T03:07:25.611Z,79.70
2019-02-23T03:10:19.603Z,79.40
2019-02-23T03:13:04.463Z,79.70
2019-02-23T03:15:58.504Z,79.90
2019-02-23T03:18:42.986Z,79.60
2019-02-23T03:21:28.337Z,79.60
2019-02-23T03:24:22.264Z,79.40
2019-02-23T03:27:06.997Z,79.30
2019-02-23T03:29:51.489Z,79.70
2019-02-23T03:32:36.508Z,79.80
2019-02-23T03:35:21.627Z,79.80
2019-02-23T03:38:15.629Z,79.80
2019-02-23T03:41:00.819Z,79.80
2019-02-23T03:43:54.290Z,79.60
2019-02-23T03:46:39.131Z,79.50
2019-02-23T03:49:23.677Z,79.40
2019-02-23T03:52:08.395Z,79.80
2019-02-23T03:54:54.442Z,79.70
2019-02-23T03:57:39.634Z,79.70
2019-02-23T04:00:33.871Z,79.70
2019-02-23T04:03:18.969Z,79.80
2019-02-23T04:06:03.802Z,79.90
2019-02-23T04:08:48.548Z,79.60
2019-02-23T04:11:33.511Z,79.60
2019-02-23T04:14:18.448Z,79.70
2019-02-23T04:17:12.329Z,80.00
2019-02-23T04:19:57.311Z,79.90
2019-02-23T04:22:51.163Z,80.20
2019-02-23T04:25:36.498Z,80.60
2019-02-23T04:28:30.127Z,80.80
2019-02-23T04:31:15.019Z,80.40
2019-02-23T04:33:59.553Z,80.10
2019-02-23T04:36:44.408Z,80.10
2019-02-23T04:39:29.132Z,80.50
2019-02-23T04:42:14.339Z,80.40
2019-02-23T04:44:59.782Z,80.80
2019-02-23T04:47:44.232Z,81.10
2019-02-23T04:50:30.116Z,81.40
2019-02-23T04:53:15.123Z,81.20
2019-02-23T04:55:59.949Z,80.90
2019-02-23T04:58:44.592Z,81.60
2019-02-23T05:01:29.571Z,82.00
2019-02-23T05:04:14.628Z,81.70
2019-02-23T05:07:08.620Z,81.70
2019-02-23T05:10:02.664Z,81.70
2019-02-23T05:12:56.131Z,81.60
2019-02-23T05:15:41.191Z,81.60
2019-02-23T05:18:25.543Z,81.40
2019-02-23T05:21:10.328Z,80.60
2019-02-23T05:23:55.191Z,80.80
2019-02-23T05:26:40.021Z,81.30
2019-02-23T05:29:24.746Z,81.10
2019-02-23T05:32:09.635Z,81.30
2019-02-23T05:34:55.152Z,81.30
2019-02-23T05:37:40.640Z,82.00
2019-02-23T05:40:25.135Z,81.40
2019-02-23T05:43:18.991Z,80.80
2019-02-23T05:46:12.843Z,80.30
2019-02-23T05:48:57.483Z,79.60
2019-02-23T05:51:42.267Z,79.30
2019-02-23T05:54:28.266Z,79.10
2019-02-23T05:57:13.759Z,79.20
2019-02-23T06:00:07.731Z,79.10
2019-02-23T06:02:52.157Z,79.50
2019-02-23T06:05:37.115Z,79.10
2019-02-23T06:08:22.035Z,78.60
2019-02-23T06:11:07.120Z,77.80
2019-02-23T06:14:01.255Z,77.20
2019-02-23T06:16:55.351Z,77.30
2019-02-23T06:19:52.276Z,77.60
2019-02-23T06:22:37.407Z,77.50
2019-02-23T06:25:35.360Z,77.20
2019-02-23T06:28:20.133Z,77.40
2019-02-23T06:31:13.615Z,77.50
2019-02-23T06:33:58.897Z,77.50
2019-02-23T06:36:52.731Z,77.00
2019-02-23T06:39:46.603Z,76.40
2019-02-23T06:42:31.551Z,75.70
2019-02-23T06:45:16.201Z,75.50
2019-02-23T06:48:00.999Z,75.30
2019-02-23T06:50:46.319Z,75.90
2019-02-23T06:53:40.059Z,76.00
2019-02-23T06:56:25.036Z,76.20
2019-02-23T06:59:18.871Z,76.40
2019-02-23T07:02:03.479Z,76.10
2019-02-23T07:04:48.039Z,76.80
2019-02-23T07:07:32.509Z,76.00
2019-02-23T07:10:17.620Z,76.20
2019-02-23T07:13:02.441Z,76.20
2019-02-23T07:15:47.342Z,75.90
2019-02-23T07:18:31.756Z,75.40
2019-02-23T07:21:16.950Z,74.60
2019-02-23T07:24:01.504Z,74.30
2019-02-23T07:26:46.616Z,74.20
2019-02-23T07:29:32.808Z,74.30
2019-02-23T07:32:17.684Z,74.60
2019-02-23T07:35:02.272Z,74.40
2019-02-23T07:37:47.036Z,74.30
2019-02-23T07:40:42.028Z,74.60
2019-02-23T07:43:36.187Z,74.70
2019-02-23T07:46:30.043Z,73.60
2019-02-23T07:49:14.727Z,73.20
2019-02-23T07:51:59.872Z,73.10
2019-02-23T07:54:53.788Z,72.40
2019-02-23T07:57:38.409Z,72.30
2019-02-23T08:00:23.445Z,71.80
2019-02-23T08:03:08.518Z,72.40
2019-02-23T08:06:02.507Z,72.70
2019-02-23T08:08:56.381Z,72.00
2019-02-23T08:11:41.375Z,71.40
2019-02-23T08:14:27.200Z,70.50
2019-02-23T08:17:12.391Z,71.10
2019-02-23T08:19:57.676Z,70.90
2019-02-23T08:22:51.081Z,71.20
2019-02-23T08:25:35.424Z,70.10
2019-02-23T08:28:20.391Z,69.50
2019-02-23T08:31:05.417Z,69.50
2019-02-23T08:33:51.623Z,69.10
2019-02-23T08:36:45.878Z,68.70
2019-02-23T08:39:30.279Z,67.40
2019-02-23T08:42:15.488Z,66.80
2019-02-23T08:45:10.363Z,66.10
2019-02-23T08:48:03.975Z,65.50
2019-02-23T08:50:48.847Z,65.10
2019-02-23T08:53:33.967Z,65.00
2019-02-23T08:56:30.852Z,64.00
2019-02-23T08:59:23.915Z,63.00
2019-02-23T09:02:18.592Z,61.70
2019-02-23T09:05:03.458Z,60.90
2019-02-23T09:07:48.620Z,59.90
2019-02-23T09:10:33.503Z,59.40
2019-02-23T09:13:17.936Z,59.30
2019-02-23T09:16:02.818Z,58.70
2019-02-23T09:18:48.200Z,58.90
2019-02-23T09:21:32.991Z,57.20
2019-02-23T09:24:18.139Z,56.90
2019-02-23T09:27:13.647Z,56.80
2019-02-23T09:29:58.712Z,55.90
2019-02-23T09:32:43.875Z,55.80
2019-02-23T09:35:40.015Z,55.50
2019-02-23T09:38:33.627Z,54.30
2019-02-23T09:41:18.727Z,54.60
2019-02-23T09:44:14.442Z,53.80
2019-02-23T09:47:08.227Z,52.60
2019-02-23T09:49:52.927Z,52.00
2019-02-23T09:52:37.787Z,51.20
2019-02-23T09:55:22.683Z,50.60
2019-02-23T09:58:07.711Z,50.00
2019-02-23T10:01:01.459Z,49.70
2019-02-23T10:03:46.520Z,48.40
2019-02-23T10:06:31.552Z,47.90
2019-02-23T10:09:25.561Z,46.40
2019-02-23T10:12:21.687Z,45.40
2019-02-23T10:15:06.581Z,45.00
2019-02-23T10:17:51.835Z,44.40
2019-02-23T10:20:37.260Z,44.30
2019-02-23T10:23:31.409Z,43.30
2019-02-23T10:26:31.101Z,42.70
2019-02-23T10:29:15.880Z,41.50
2019-02-23T10:32:00.861Z,41.50
2019-02-23T10:34:45.664Z,41.20
2019-02-23T10:37:30.340Z,40.30
2019-02-23T10:40:15.487Z,39.40
2019-02-23T10:43:09.679Z,38.70
2019-02-23T10:46:03.766Z,37.80
2019-02-23T10:49:00.992Z,36.30
2019-02-23T10:51:54.808Z,35.50
2019-02-23T10:54:39.667Z,34.90
2019-02-23T10:57:33.993Z,34.20
2019-02-23T11:00:28.090Z,34.60
2019-02-23T11:03:21.768Z,34.30
2019-02-23T11:06:07.635Z,33.50
2019-02-23T11:08:52.420Z,32.40
2019-02-23T11:11:37.424Z,31.60
2019-02-23T11:14:22.525Z,30.60
2019-02-23T11:17:06.899Z,30.00
2019-02-23T11:19:51.921Z,30.40
2019-02-23T11:22:36.963Z,29.00
2019-02-23T11:25:22.154Z,28.70
2019-02-23T11:28:18.085Z,28.50
2019-02-23T11:31:11.731Z,28.00
2019-02-23T11:33:56.572Z,27.70
2019-02-23T11:36:43.122Z,27.20
2019-02-23T11:39:39.470Z,27.10
2019-02-23T11:42:25.023Z,26.80
2019-02-23T11:45:19.011Z,26.00
2019-02-23T11:48:04.259Z,25.40
2019-02-23T11:50:58.705Z,24.60
2019-02-23T11:53:54.890Z,24.90
2019-02-23T11:56:38.616Z,24.10
2019-02-23T11:59:22.975Z,24.10
2019-02-23T12:02:07.903Z,23.50
2019-02-23T12:04:53.336Z,23.80
2019-02-23T12:07:48.244Z,23.30
2019-02-23T12:10:41.776Z,23.10
2019-02-23T12:13:27.315Z,22.70
2019-02-23T12:16:22.939Z,22.20
2019-02-23T12:19:07.546Z,22.00
2019-02-23T12:21:51.967Z,22.00
2019-02-23T12:24:36.700Z,21.30
2019-02-23T12:27:21.881Z,21.00
2019-02-23T12:30:06.940Z,20.50
2019-02-23T12:32:51.640Z,20.20
2019-02-23T12:35:36.251Z,20.50
2019-02-23T12:38:20.887Z,20.80
2019-02-23T12:41:05.218Z,20.20
2019-02-23T12:43:50.066Z,20.10
2019-02-23T12:46:35.300Z,19.90
2019-02-23T12:49:20.324Z,19.30
2019-02-23T12:52:05.279Z,19.60
2019-02-23T12:54:50.449Z,19.00
2019-02-23T12:57:45.100Z,18.50
2019-02-23T13:00:30.275Z,18.90
2019-02-23T13:03:15.415Z,19.20
2019-02-23T13:06:01.020Z,18.70
2019-02-23T13:08:55.024Z,19.00
2019-02-23T13:11:49.078Z,18.80
2019-02-23T13:14:43.395Z,19.50
2019-02-23T13:17:37.207Z,19.20
2019-02-23T13:20:22.510Z,19.20
2019-02-23T13:23:15.965Z,18.90
2019-02-23T13:26:00.812Z,19.50
2019-02-23T13:28:45.703Z,19.40
2019-02-23T13:31:31.083Z,19.30
2019-02-23T13:34:24.487Z,18.70
2019-02-23T13:37:09.327Z,19.00
2019-02-23T13:39:54.403Z,19.30
2019-02-23T13:42:48.566Z,20.00
2019-02-23T13:45:42.843Z,18.90
2019-02-23T13:48:36.597Z,19.10
2019-02-23T13:51:21.250Z,19.50
2019-02-23T13:54:05.689Z,20.00
2019-02-23T13:56:50.057Z,19.60
2019-02-23T13:59:43.351Z,19.30
2019-02-23T14:02:28.787Z,18.90
2019-02-23T14:05:22.150Z,19.10
2019-02-23T14:08:07.020Z,19.50
2019-02-23T14:10:51.648Z,19.00
2019-02-23T14:13:35.995Z,19.20
2019-02-23T14:16:29.278Z,19.20
2019-02-23T14:19:14.482Z,19.00
2019-02-23T14:22:10.463Z,19.10
2019-02-23T14:24:55.779Z,19.20
2019-02-23T14:27:49.299Z,19.20
2019-02-23T14:30:33.638Z,19.40
2019-02-23T14:33:18.803Z,19.80
2019-02-23T14:36:04.256Z,19.70
2019-02-23T14:38:58.494Z,19.40
2019-02-23T14:41:43.530Z,19.40
2019-02-23T14:44:28.344Z,19.20
2019-02-23T14:47:13.119Z,19.30
2019-02-23T14:49:58.039Z,19.20
2019-02-23T14:52:42.786Z,19.30
2019-02-23T14:55:27.496Z,18.80
2019-02-23T14:58:12.435Z,19.30
2019-02-23T15:00:57.531Z,18.60
2019-02-23T15:03:42.255Z,18.70
2019-02-23T15:06:27.284Z,18.40
2019-02-23T15:09:12.148Z,18.30
2019-02-23T15:11:58.924Z,17.70
2019-02-23T15:14:52.852Z,17.90
2019-02-23T15:17:37.732Z,17.90
2019-02-23T15:20:22.629Z,18.10
2019-02-23T15:23:16.639Z,18.20
2019-02-23T15:26:13.388Z,18.40
2019-02-23T15:28:58.159Z,18.30
2019-02-23T15:31:43.228Z,18.40
2019-02-23T15:34:28.191Z,18.10
2019-02-23T15:37:22.387Z,18.70
2019-02-23T15:40:15.920Z,18.60
2019-02-23T15:43:00.951Z,18.40
2019-02-23T15:45:46.404Z,18.50
2019-02-23T15:48:39.891Z,18.60
2019-02-23T15:51:25.014Z,18.60
2019-02-23T15:54:18.944Z,19.20
2019-02-23T15:57:12.907Z,19.10
2019-02-23T15:59:57.660Z,19.10
2019-02-23T16:02:42.907Z,19.50
2019-02-23T16:05:36.267Z,20.20
2019-02-23T16:08:20.967Z,21.40
2019-02-23T16:11:05.663Z,22.00
2019-02-23T16:13:50.679Z,22.10
2019-02-23T16:16:35.224Z,22.40
2019-02-23T16:19:19.575Z,22.50
2019-02-23T16:22:12.827Z,22.70
2019-02-23T16:24:57.311Z,22.90
2019-02-23T16:27:52.287Z,23.20
2019-02-23T16:30:37.856Z,23.20
2019-02-23T16:33:22.469Z,23.30
2019-02-23T16:36:07.123Z,23.50
2019-02-23T16:39:00.696Z,23.60
2019-02-23T16:41:47.276Z,23.70
2019-02-23T16:44:32.251Z,23.50
2019-02-23T16:47:26.127Z,23.60
2019-02-23T16:50:11.455Z,23.60
2019-02-23T16:53:04.880Z,23.80
2019-02-23T16:55:51.498Z,23.90
2019-02-23T16:58:35.823Z,24.00
2019-02-23T17:01:20.701Z,23.80
2019-02-23T17:04:05.124Z,23.70
2019-02-23T17:06:50.504Z,23.90
2019-02-23T17:09:36.608Z,24.00
2019-02-23T17:12:21.504Z,23.80
2019-02-23T17:15:10.457Z,24.20
2019-02-23T17:17:53.836Z,24.50
2019-02-23T17:20:38.836Z,24.80
2019-02-23T17:23:23.363Z,25.00
2019-02-23T17:26:08.704Z,25.00
2019-02-23T17:28:53.416Z,24.90
2019-02-23T17:31:38.392Z,25.50
2019-02-23T17:34:23.480Z,25.40
2019-02-23T17:37:08.584Z,25.40
2019-02-23T17:40:02.314Z,25.90
2019-02-23T17:42:47.220Z,25.40
2019-02-23T17:45:32.300Z,25.30
2019-02-23T17:48:46.158Z,25.30
2019-02-23T17:51:31.557Z,25.50
2019-02-23T17:54:25.155Z,25.40
2019-02-23T17:57:10.060Z,25.40
2019-02-23T17:59:54.759Z,25.30
2019-02-23T18:02:39.724Z,25.10
2019-02-23T18:05:25.184Z,25.10
2019-02-23T18:08:10.496Z,25.30
2019-02-23T18:10:55.424Z,25.20
2019-02-23T18:13:40.400Z,25.10
2019-02-23T18:16:25.399Z,24.90
2019-02-23T18:19:19.362Z,24.90
2019-02-23T18:22:04.275Z,24.40
2019-02-23T18:24:48.899Z,24.40
2019-02-23T18:27:33.703Z,24.70
2019-02-23T18:30:18.687Z,24.90
2019-02-23T18:33:12.570Z,24.70
2019-02-23T18:35:57.139Z,24.70
2019-02-23T18:38:41.832Z,24.60
2019-02-23T18:41:26.639Z,24.30
2019-02-23T18:44:18.716Z,23.90
2019-02-23T18:47:32.255Z,24.30
2019-02-23T18:50:26.171Z,23.80
2019-02-23T18:53:20.267Z,23.80
2019-02-23T18:56:04.861Z,23.80
2019-02-23T18:58:49.744Z,24.00
2019-02-23T19:01:34.675Z,23.90
2019-02-23T19:04:30.033Z,24.00
2019-02-23T19:07:15.527Z,23.80
2019-02-23T19:10:09.199Z,24.10
2019-02-23T19:12:54.485Z,24.10
2019-02-23T19:15:48.131Z,24.20
2019-02-23T19:18:33.527Z,24.00
2019-02-23T19:21:27.371Z,24.40
2019-02-23T19:24:20.921Z,24.50
2019-02-23T19:27:05.792Z,24.60
2019-02-23T19:29:51.436Z,25.00
2019-02-23T19:32:45.007Z,25.10
2019-02-23T19:35:30.056Z,25.30
2019-02-23T19:38:24.239Z,25.10
2019-02-23T19:41:17.703Z,25.00
2019-02-23T19:44:03.458Z,24.90
2019-02-23T19:46:49.890Z,24.80
2019-02-23T19:49:35.118Z,24.70
2019-02-23T19:52:20.278Z,25.00
2019-02-23T19:55:05.001Z,25.00
2019-02-23T19:57:51.952Z,25.70
2019-02-23T20:00:45.876Z,26.00
2019-02-23T20:03:30.820Z,26.00
2019-02-23T20:06:24.906Z,25.90
2019-02-23T20:09:18.763Z,26.00
2019-02-23T20:12:04.079Z,25.90
2019-02-23T20:14:58.265Z,26.00
2019-02-23T20:17:57.818Z,26.00
2019-02-23T20:20:42.501Z,26.40
2019-02-23T20:23:26.884Z,26.80
2019-02-23T20:26:11.435Z,27.00
2019-02-23T20:28:56.142Z,26.80
2019-02-23T20:31:41.347Z,26.50
2019-02-23T20:34:26.417Z,26.90
2019-02-23T20:37:11.988Z,26.20
2019-02-23T20:40:05.899Z,26.20
2019-02-23T20:43:00.027Z,26.50
2019-02-23T20:45:54.136Z,26.20
2019-02-23T20:48:48.151Z,25.90
2019-02-23T20:51:33.317Z,26.00
2019-02-23T20:54:27.051Z,26.10
2019-02-23T20:57:13.975Z,26.10
2019-02-23T20:59:59.121Z,26.10
2019-02-23T21:02:43.884Z,25.70
2019-02-23T21:05:28.336Z,25.40
2019-02-23T21:08:24.319Z,25.30
2019-02-23T21:11:19.845Z,25.30
2019-02-23T21:14:05.183Z,24.70
2019-02-23T21:17:00.656Z,24.70
2019-02-23T21:19:55.672Z,24.60
2019-02-23T21:22:40.532Z,24.50
2019-02-23T21:25:25.841Z,24.50
2019-02-23T21:28:21.740Z,24.40
2019-02-23T21:31:15.695Z,24.50
2019-02-23T21:34:12.760Z,24.10
2019-02-23T21:36:57.720Z,23.90
2019-02-23T21:39:51.371Z,24.10
2019-02-23T21:42:36.373Z,24.30
2019-02-23T21:45:21.128Z,24.30
2019-02-23T21:48:05.987Z,24.40
2019-02-23T21:50:51.076Z,24.50
2019-02-23T21:53:44.945Z,24.40
2019-02-23T21:56:39.079Z,24.50
2019-02-23T21:59:33.319Z,24.50
2019-02-23T22:02:35.620Z,24.20
2019-02-23T22:05:21.850Z,24.30
2019-02-23T22:08:18.047Z,24.30
2019-02-23T22:11:03.428Z,24.20
2019-02-23T22:13:48.005Z,24.10
2019-02-23T22:16:32.636Z,24.10
2019-02-23T22:19:17.277Z,24.30
2019-02-23T22:22:01.852Z,24.30
2019-02-23T22:24:55.363Z,24.40
2019-02-23T22:27:40.360Z,24.20
2019-02-23T22:30:25.242Z,24.50
2019-02-23T22:33:18.953Z,24.40
2019-02-23T22:36:04.944Z,24.50
2019-02-23T22:38:50.013Z,24.60
2019-02-23T22:41:35.372Z,24.60
2019-02-23T22:44:19.772Z,24.40
2019-02-23T22:47:04.755Z,24.40
2019-02-23T22:49:49.898Z,24.50
2019-02-23T22:52:43.843Z,24.40
2019-02-23T22:55:28.135Z,24.30
2019-02-23T22:58:12.653Z,24.10
2019-02-23T23:01:02.822Z,23.90
2019-02-23T23:04:06.212Z,23.80
2019-02-23T23:06:51.787Z,23.70
2019-02-23T23:09:36.754Z,23.90
2019-02-23T23:12:21.031Z,23.70
2019-02-23T23:15:06.011Z,23.80
2019-02-23T23:17:52.033Z,23.90
2019-02-23T23:20:37.156Z,24.00
2019-02-23T23:23:22.288Z,23.80
2019-02-23T23:26:07.319Z,23.50
2019-02-23T23:29:00.980Z,23.00
2019-02-23T23:31:46.204Z,23.00
2019-02-23T23:34:40.194Z,22.90
2019-02-23T23:37:25.615Z,23.00
2019-02-23T23:40:10.407Z,23.00
2019-02-23T23:42:58.201Z,23.00
2019-02-23T23:45:42.231Z,22.60
2019-02-23T23:48:28.784Z,22.50
2019-02-23T23:51:12.551Z,22.20
2019-02-23T23:54:06.155Z,21.70
2019-02-23T23:56:50.796Z,21.50
2019-02-23T23:59:35.673Z,21.40
